This is the latest recevied weather packets stored in our database for station/object CW79215. If no packets are shown the sender has not sent any weather packets the latest 10 day(s).
| Time | Temp. | Humidity | Pressure | Rain* | Wind** | Luminosity | Snow |
|---|---|---|---|---|---|---|---|
| 1777917135 | 15.56° C | 70% | 1017.8 hPa | - | - | - | - |
| 1777916234 | 16.11° C | 68% | 1017.8 hPa | - | - | - | - |
| 1777915334 | 16.11° C | 69% | 1017.8 hPa | - | - | - | - |
| 1777914434 | 17.22° C | 61% | 1017.9 hPa | - | - | - | - |
| 1777913534 | 17.78° C | 57% | 1017.7 hPa | - | - | - | - |
| 1777912634 | 18.33° C | 52% | 1017.5 hPa | - | - | - | - |
| 1777911734 | 19.44° C | 47% | 1017.5 hPa | - | - | - | - |
| 1777910834 | 18.89° C | 45% | 1017.3 hPa | - | - | - | - |
| 1777909934 | 19.44° C | 45% | 1017.3 hPa | - | - | - | - |
| 1777909034 | 19.44° C | 44% | 1017.3 hPa | - | - | - | - |
| 1777908134 | 19.44° C | 45% | 1017.3 hPa | - | - | - | - |
| 1777907234 | 19.44° C | 45% | 1017.3 hPa | - | - | - | - |
| 1777906333 | 19.44° C | 46% | 1017.3 hPa | - | - | - | - |
| 1777905433 | 19.44° C | 45% | 1017.3 hPa | - | - | - | - |
| 1777904533 | 20° C | 44% | 1017.2 hPa | - | - | - | - |
| 1777903633 | 20° C | 45% | 1017.3 hPa | - | - | - | - |
| 1777902733 | 20° C | 46% | 1017.1 hPa | - | - | - | - |
| 1777901833 | 20° C | 46% | 1017.2 hPa | - | - | - | - |
| 1777900933 | 20° C | 49% | 1017.2 hPa | - | - | - | - |
| 1777900033 | 20.56° C | 40% | 1017.2 hPa | - | - | - | - |
| 1777899133 | 21.11° C | 40% | 1017.1 hPa | - | - | - | - |
| 1777898233 | 21.67° C | 34% | 1017 hPa | - | - | - | - |
| 1777897333 | 20.56° C | 39% | 1017 hPa | - | - | - | - |
| 1777896433 | 20.56° C | 39% | 1017 hPa | - | - | - | - |
| 1777895532 | 21.11° C | 36% | 1017.1 hPa | - | - | - | - |
* Rain since midnight (hover to see other rain measurements)
** Current wind speed in m/s (hover to see current wind gust speed)